Time;durP1;ratioP1;P1;durP2;ratioP2;P2;SDS_P1;SDS_P2;PMS_P1;PMS_P2;Temp;Humidity;BMP_temperature;BMP_pressure;BME280_temperature;BME280_humidity;BME280_pressure;Samples;Min_cycle;Max_cycle;Signal;HPM_P1;HPM_P2
2022/02/20 00:01:34;;;;;;;42.72;26.58;;;;;;;;;;5051767;28;20108;-78
2022/02/20 00:04:02;;;;;;;34.70;18.60;;;;;;;;;;5053348;28;20029;-79
2022/02/20 00:06:29;;;;;;;37.40;21.38;;;;;;;;;;5053928;28;20014;-79
2022/02/20 00:08:55;;;;;;;40.50;24.65;;;;;;;;;;5052696;28;20047;-78
2022/02/20 00:11:21;;;;;;;40.72;24.25;;;;;;;;;;5053757;28;20024;-79
2022/02/20 00:13:47;;;;;;;46.50;24.23;;;;;;;;;;5052830;28;20064;-78
2022/02/20 00:16:13;;;;;;;36.30;23.33;;;;;;;;;;5051524;28;20035;-78
2022/02/20 00:18:40;;;;;;;40.55;22.65;;;;;;;;;;5052367;28;20029;-78
2022/02/20 00:21:06;;;;;;;37.05;22.00;;;;;;;;;;5052137;28;20051;-80
2022/02/20 00:23:32;;;;;;;40.92;26.27;;;;;;;;;;5052284;28;20048;-79
2022/02/20 00:25:58;;;;;;;35.20;22.50;;;;;;;;;;5050797;28;20029;-78
2022/02/20 00:28:24;;;;;;;37.55;23.73;;;;;;;;;;5053153;28;20017;-78
2022/02/20 00:30:50;;;;;;;37.03;20.33;;;;;;;;;;5052764;28;20479;-79
2022/02/20 00:33:16;;;;;;;34.28;18.00;;;;;;;;;;5051757;28;20082;-78
2022/02/20 00:35:42;;;;;;;26.92;16.30;;;;;;;;;;5051636;28;20202;-78
2022/02/20 00:38:09;;;;;;;34.67;20.10;;;;;;;;;;5050148;28;20100;-79
2022/02/20 00:40:35;;;;;;;36.80;18.85;;;;;;;;;;5051258;28;20021;-78
2022/02/20 00:43:01;;;;;;;30.25;15.15;;;;;;;;;;5034579;28;20026;-79
2022/02/20 00:45:28;;;;;;;31.42;18.20;;;;;;;;;;5044251;28;20484;-78
2022/02/20 00:47:54;;;;;;;29.23;16.05;;;;;;;;;;5050510;28;20044;-78
2022/02/20 00:50:20;;;;;;;32.30;16.73;;;;;;;;;;5051332;28;20100;-80
2022/02/20 00:52:46;;;;;;;28.50;16.40;;;;;;;;;;5051579;28;20052;-78
2022/02/20 00:55:13;;;;;;;22.65;14.07;;;;;;;;;;5051909;28;20468;-79
2022/02/20 00:57:39;;;;;;;27.77;15.45;;;;;;;;;;5048425;28;20021;-80
2022/02/20 01:00:06;;;;;;;23.27;13.18;;;;;;;;;;5051625;28;20108;-79
2022/02/20 01:02:32;;;;;;;15.70;10.45;;;;;;;;;;5050259;28;20017;-79
2022/02/20 01:04:58;;;;;;;15.98;7.72;;;;;;;;;;5050196;28;20029;-78
2022/02/20 01:07:24;;;;;;;17.00;8.95;;;;;;;;;;5083884;28;20106;-79
2022/02/20 01:09:51;;;;;;;15.38;9.40;;;;;;;;;;5051568;28;20029;-79
2022/02/20 01:12:17;;;;;;;21.10;10.57;;;205.60;2252.80;;;;;;5083396;28;20052;-79
2022/02/20 01:14:44;;;;;;;21.63;10.20;;;205.30;2252.80;;;;;;5042058;28;20036;-80
2022/02/20 01:17:10;;;;;;;15.02;9.20;;;205.30;2252.80;;;;;;5041934;28;20025;-80
2022/02/20 01:19:36;;;;;;;17.50;11.20;;;205.20;2252.80;;;;;;5049809;28;20392;-79
2022/02/20 01:22:02;;;;;;;19.75;11.88;;;205.30;2252.80;;;;;;5047377;28;20016;-79
2022/02/20 01:24:28;;;;;;;18.95;10.25;;;205.20;2252.80;;;;;;5051389;28;20132;-79
2022/02/20 01:26:54;;;;;;;20.73;12.25;;;205.20;2252.80;;;;;;5050820;28;20100;-79
2022/02/20 01:29:21;;;;;;;21.65;12.05;;;205.30;2252.80;;;;;;5050893;28;20061;-78
2022/02/20 01:31:47;;;;;;;21.65;12.82;;;205.30;2252.80;;;;;;5052176;28;20017;-79
2022/02/20 01:34:13;;;;;;;21.52;13.50;;;205.40;2252.80;;;;;;5051443;28;20120;-78
2022/02/20 01:36:38;;;;;;;17.90;11.35;;;205.40;2252.80;;;;;;5050358;28;20449;-80
2022/02/20 01:39:04;;;;;;;19.38;10.48;;;205.40;2252.80;;;;;;5050621;28;20056;-79
2022/02/20 01:41:30;;;;;;;13.88;8.60;;;205.40;2252.80;;;;;;5048841;28;20029;-79
2022/02/20 01:43:55;;;;;;;17.83;11.52;;;205.30;2252.80;;;;;;5035453;28;20025;-78
2022/02/20 01:46:22;;;;;;;18.75;10.15;;;205.30;2252.80;;;;;;5042749;28;20037;-79
2022/02/20 01:48:48;;;;;;;15.52;9.88;;;205.40;2252.80;;;;;;5030797;28;20026;-78
2022/02/20 01:51:14;;;;;;;21.35;10.13;;;205.50;2252.80;;;;;;5038066;28;20457;-78
2022/02/20 01:53:41;;;;;;;17.63;10.52;;;205.50;2252.80;;;;;;5045211;28;20025;-79
2022/02/20 01:56:07;;;;;;;16.65;9.00;;;205.60;2252.80;;;;;;5050650;28;20552;-78
2022/02/20 01:58:33;;;;;;;13.50;8.02;;;205.70;2252.80;;;;;;5049584;28;20025;-79
2022/02/20 02:01:02;;;;;;;15.27;8.15;;;205.70;2252.80;;;;;;5049697;28;20467;-77
2022/02/20 02:03:28;;;;;;;21.50;10.43;;;205.70;2252.80;;;;;;5050126;28;20052;-79
2022/02/20 02:05:54;;;;;;;14.00;7.97;;;230.40;2252.80;;;;;;5050072;28;20079;-78
2022/02/20 02:08:20;;;;;;;13.30;6.32;;;230.40;2252.80;;;;;;5051315;28;20029;-78
2022/02/20 02:10:46;;;;;;;13.88;8.18;;;230.40;2252.80;;;;;;5051361;28;20033;-79
2022/02/20 02:13:12;;;;;;;11.57;7.70;;;230.40;2252.80;;;;;;5051615;28;20025;-79
2022/02/20 02:16:07;;;;;;;13.32;7.20;;;230.40;2252.80;;;;;;5051213;28;20115;-78
2022/02/20 02:18:32;;;;;;;21.25;9.93;;;230.50;2176.00;;;;;;5037160;28;20033;-79
2022/02/20 02:20:58;;;;;;;20.95;11.10;;;230.40;2176.00;;;;;;5051449;28;20438;-78
2022/02/20 02:23:24;;;;;;;22.30;12.85;;;230.50;2176.00;;;;;;5051720;28;20468;-78
2022/02/20 02:25:52;;;;;;;51.28;26.20;;;230.60;2176.00;;;;;;5050244;28;20048;-78
2022/02/20 02:28:18;;;;;;;40.90;20.25;;;230.60;2201.60;;;;;;5051482;28;20029;-78
2022/02/20 02:30:47;;;;;;;24.92;15.15;;;230.60;2201.60;;;;;;5050168;28;20395;-78
2022/02/20 02:33:24;;;;;;;21.35;13.38;;;230.70;2176.00;;;;;;5050015;28;20037;-77
2022/02/20 02:35:50;;;;;;;24.92;12.80;;;230.70;2227.20;;;;;;5050096;28;20033;-77
2022/02/20 02:38:15;;;;;;;21.05;12.45;;;230.70;2227.20;;;;;;5083695;28;20029;-77
2022/02/20 02:40:41;;;;;;;20.55;11.80;;;230.70;2227.20;;;;;;5050899;28;20562;-78
2022/02/20 02:43:07;;;;;;;21.48;11.73;;;230.70;2252.80;;;;;;5049936;28;20029;-77
2022/02/20 02:45:33;;;;;;;19.33;11.77;;;230.70;2252.80;;;;;;5050925;28;20037;-79
2022/02/20 02:47:58;;;;;;;25.33;15.13;;;230.70;2252.80;;;;;;5050941;28;20112;-78
2022/02/20 02:50:24;;;;;;;33.90;21.25;;;230.70;2252.80;;;;;;5053543;28;20028;-78
2022/02/20 02:52:50;;;;;;;40.55;22.73;;;230.80;2252.80;;;;;;5054471;28;20052;-78
2022/02/20 02:55:15;;;;;;;29.02;20.25;;;230.60;2252.80;;;;;;5056021;28;20025;-78
2022/02/20 02:57:41;;;;;;;39.00;31.33;;;230.60;2252.80;;;;;;5054474;28;20029;-77
2022/02/20 03:00:07;;;;;;;65.10;47.95;;;230.60;2252.80;;;;;;5054695;28;20439;-77
2022/02/20 03:02:33;;;;;;;64.65;46.80;;;230.50;2252.80;;;;;;5053357;28;20395;-78
2022/02/20 03:05:03;;;;;;;55.72;43.85;;;230.40;2252.80;;;;;;5053407;28;20037;-79
2022/02/20 03:07:29;;;;;;;51.30;37.63;;;230.40;2252.80;;;;;;5053415;28;20483;-79
2022/02/20 03:09:55;;;;;;;48.30;36.38;;;205.70;2252.80;;;;;;5053174;28;20484;-79
2022/02/20 03:12:20;;;;;;;58.45;52.22;;;230.40;2252.80;;;;;;5054336;28;20109;-78
2022/02/20 03:14:46;;;;;;;59.80;51.88;;;;;;;;;;5053219;28;20095;-78
2022/02/20 03:17:12;;;;;;;68.03;56.67;;;;;;;;;;5054200;28;20025;-78
2022/02/20 03:19:38;;;;;;;77.22;65.75;;;;;;;;;;5054426;28;20025;-78
2022/02/20 03:22:04;;;;;;;75.40;61.67;;;;;;;;;;5054483;28;20032;-78
2022/02/20 03:24:30;;;;;;;69.85;59.13;;;;;;;;;;5054228;28;20064;-78
2022/02/20 03:26:57;;;;;;;71.47;56.13;;;;;;;;;;5053027;28;20036;-79
2022/02/20 03:29:23;;;;;;;35.00;21.75;;;;;;;;;;5053080;28;20028;-79
2022/02/20 03:31:49;;;;;;;45.40;36.80;;;;;;;;;;5052948;28;20123;-79
2022/02/20 03:34:15;;;;;;;22.98;15.95;;;;;;;;;;5053238;28;20024;-80
2022/02/20 03:36:41;;;;;;;13.35;8.65;;;;;;;;;;5054312;28;20159;-80
2022/02/20 03:39:07;;;;;;;12.82;6.88;;;;;;;;;;5053770;28;20029;-80
2022/02/20 03:41:33;;;;;;;10.63;6.95;;;;;;;;;;5054171;28;20021;-81
2022/02/20 03:43:59;;;;;;;16.10;6.72;;;;;;;;;;5054097;28;20063;-81
2022/02/20 03:46:25;;;;;;;22.85;8.35;;;;;;;;;;5052670;28;20037;-80
2022/02/20 03:48:51;;;;;;;20.23;9.05;;;;;;;;;;5052677;28;20025;-81
2022/02/20 03:51:17;;;;;;;14.35;7.22;;;;;;;;;;5052706;28;20112;-80
2022/02/20 03:53:43;;;;;;;21.33;8.35;;;;;;;;;;5052738;28;20029;-80
2022/02/20 03:56:09;;;;;;;25.52;14.90;;;;;;;;;;5052931;28;20039;-79
2022/02/20 03:58:37;;;;;;;15.75;7.25;;;;;;;;;;5039984;28;20021;-80
2022/02/20 04:01:03;;;;;;;18.20;10.70;;;;;;;;;;5066846;28;20046;-81
2022/02/20 04:03:29;;;;;;;16.13;8.88;;;;;;;;;;5052432;28;20021;-80
2022/02/20 04:05:55;;;;;;;12.07;6.47;;;;;;;;;;5053246;28;20040;-80
2022/02/20 04:08:21;;;;;;;10.40;5.30;;;;;;;;;;5053414;28;20017;-80
2022/02/20 04:10:47;;;;;;;17.67;6.78;;;;;;;;;;5053450;28;20017;-80
2022/02/20 04:13:13;;;;;;;9.88;5.85;;;;;;;;;;5053697;28;20025;-82
2022/02/20 04:15:39;;;;;;;8.15;4.32;;;;;;;;;;5053188;28;20032;-79
2022/02/20 04:18:05;;;;;;;12.05;5.15;;;;;;;;;;5052201;28;20017;-80
2022/02/20 04:20:31;;;;;;;12.15;5.28;;;;;;;;;;5053344;28;20125;-81
2022/02/20 04:22:57;;;;;;;14.95;6.63;;;;;;;;;;5053603;28;20052;-80
2022/02/20 04:25:23;;;;;;;10.82;6.25;;;;;;;;;;5053058;28;20037;-80
2022/02/20 04:27:49;;;;;;;12.68;6.80;;;;;;;;;;5051808;28;20478;-80
2022/02/20 04:30:18;;;;;;;11.90;6.38;;;;;;;;;;5053092;28;20060;-80
2022/02/20 04:32:44;;;;;;;14.02;7.47;;;;;;;;;;5051804;28;20017;-80
2022/02/20 04:35:11;;;;;;;16.92;8.68;;;;;;;;;;5051747;28;20025;-80
2022/02/20 04:37:37;;;;;;;13.23;7.65;;;;;;;;;;5051908;28;20021;-78
2022/02/20 04:40:04;;;;;;;19.35;8.15;;;;;;;;;;5051742;28;20017;-79
2022/02/20 04:42:30;;;;;;;12.63;6.75;;;;;;;;;;5052993;28;20071;-79
2022/02/20 04:44:56;;;;;;;14.60;6.80;;;;;;;;;;5052926;28;20033;-79
2022/02/20 04:47:22;;;;;;;12.18;7.03;;;;;;;;;;5051596;28;20021;-79
2022/02/20 04:49:48;;;;;;;23.67;11.98;;;;;;;;;;5051692;28;20032;-79
2022/02/20 04:52:14;;;;;;;25.70;12.18;;;;;;;;;;5052917;28;20070;-80
2022/02/20 04:54:40;;;;;;;19.40;11.30;;;;;;;;;;5051561;28;20025;-79
2022/02/20 04:57:07;;;;;;;19.50;10.45;;;;;;;;;;5051632;28;20025;-80
2022/02/20 04:59:33;;;;;;;19.35;11.90;;;;;;;;;;5052800;28;20053;-79
2022/02/20 05:01:59;;;;;;;28.10;10.63;;;;;;;;;;5051223;28;20059;-80
2022/02/20 05:04:25;;;;;;;28.55;13.75;;;;;;;;;;5051153;28;20029;-79
2022/02/20 05:17:28;;;;;;;15.98;10.63;;;;;;;;;;5130051;27;21037;-79
2022/02/20 05:19:54;;;;;;;23.13;12.13;;;;;;;;;;5128939;28;20035;-82
2022/02/20 05:22:21;;;;;;;27.02;13.85;;;;;;;;;;5129063;28;20039;-82
2022/02/20 05:24:49;;;;;;;26.30;15.05;;;;;;;;;;5128768;28;20102;-79
2022/02/20 05:27:15;;;;;;;34.70;18.38;;;;;;;;;;5128682;28;20030;-78
2022/02/20 05:29:41;;;;;;;34.40;19.45;;;;;;;;;;5130296;28;20351;-78
2022/02/20 05:32:08;;;;;;;33.80;20.33;;;;;;;;;;5128733;28;20493;-78
2022/02/20 05:34:34;;;;;;;41.63;24.40;;;;;;;;;;5129573;27;20045;-80
2022/02/20 05:37:00;;;;;;;61.05;34.85;;;;;;;;;;5129926;28;20023;-77
2022/02/20 05:39:26;;;;;;;57.17;28.70;;;;;;;;;;5128455;28;20019;-78
2022/02/20 05:41:52;;;;;;;32.58;16.50;;;;;;;;;;5129437;28;20094;-78
2022/02/20 05:44:18;;;;;;;33.33;19.98;;;;;;;;;;5128423;28;20024;-78
2022/02/20 05:46:44;;;;;;;30.00;17.55;;;;;;;;;;5128213;28;20027;-78
2022/02/20 05:49:10;;;;;;;29.85;18.10;;;;;;;;;;5128295;28;20020;-80
2022/02/20 05:51:36;;;;;;;45.72;25.00;;;;;;;;;;5129504;28;20043;-79
2022/02/20 05:54:02;;;;;;;37.95;19.48;;;;;;;;;;5129503;28;20011;-77
2022/02/20 05:56:28;;;;;;;42.03;24.08;;;;;;;;;;5129008;28;20020;-77
2022/02/20 05:58:54;;;;;;;36.65;22.98;;;;;;;;;;5127980;28;20450;-78
2022/02/20 06:01:20;;;;;;;35.78;22.27;;;;;;;;;;5128603;28;20119;-77
2022/02/20 06:03:46;;;;;;;35.55;22.30;;;;;;;;;;5129253;28;20024;-77
2022/02/20 06:06:12;;;;;;;51.90;25.95;;;;;;;;;;5127882;28;20035;-78
2022/02/20 06:08:38;;;;;;;53.45;25.83;;;;;;;;;;5129047;28;20022;-77
2022/02/20 06:11:04;;;;;;;46.58;28.25;;;;;;;;;;5128859;28;20051;-78
2022/02/20 06:13:31;;;;;;;40.17;25.92;;;;;;;;;;5127875;28;20019;-78
2022/02/20 06:15:57;;;;;;;55.70;32.20;;;;;;;;;;5128662;28;20047;-78
2022/02/20 06:18:23;;;;;;;36.35;24.27;;;;;;;;;;5114530;28;20055;-78
2022/02/20 06:20:49;;;;;;;56.13;35.53;;;;;;;;;;5115334;28;20023;-78
2022/02/20 06:23:15;;;;;;;64.15;41.00;;;;;;;;;;5114437;28;20119;-81
2022/02/20 06:25:41;;;;;;;52.75;28.35;;;;;;;;;;5114228;28;20591;-81
2022/02/20 06:28:07;;;;;;;47.80;31.73;;;;;;;;;;5115517;28;20030;-81
2022/02/20 06:30:34;;;;;;;39.78;23.13;;;;;;;;;;5112784;28;20027;-81
2022/02/20 06:33:00;;;;;;;39.83;24.65;;;;;;;;;;5093853;28;20024;-80
2022/02/20 06:35:26;;;;;;;38.67;24.58;;;;;;;;;;5093614;28;20115;-80
2022/02/20 06:37:52;;;;;;;44.97;27.13;;;;;;;;;;5093658;28;20024;-81
2022/02/20 06:40:18;;;;;;;33.33;22.15;;;;;;;;;;5093347;28;20454;-80
2022/02/20 06:42:44;;;;;;;46.35;28.10;;;;;;;;;;5094598;28;20034;-80
2022/02/20 06:45:11;;;;;;;55.88;33.28;;;;;;;;;;5093630;28;20055;-81
2022/02/20 06:47:37;;;;;;;48.10;30.10;;;;;;;;;;5093341;28;20020;-80
2022/02/20 06:50:03;;;;;;;58.70;32.13;;;;;;;;;;5093350;28;20360;-79
2022/02/20 06:52:29;;;;;;;44.58;28.10;;;;;;;;;;5093368;28;20020;-79
2022/02/20 06:54:55;;;;;;;51.08;31.10;;;;;;;;;;5093356;28;20059;-79
2022/02/20 06:57:21;;;;;;;43.92;28.35;;;;;;;;;;5094608;28;20016;-80
2022/02/20 06:59:47;;;;;;;40.15;27.02;;;;;;;;;;5093221;28;20127;-80
2022/02/20 07:02:13;;;;;;;31.65;18.67;;;;;;;;;;5104891;28;20020;-80
2022/02/20 07:04:39;;;;;;;28.75;18.23;;;;;;;;;;5113315;28;20048;-79
2022/02/20 07:07:05;;;;;;;27.08;15.27;;;;;;;;;;5113234;28;20065;-79
2022/02/20 07:09:31;;;;;;;31.80;15.07;;;;;;;;;;5112578;28;20020;-80
2022/02/20 07:11:57;;;;;;;21.45;14.15;;;;;;;;;;5113063;28;20062;-78
2022/02/20 07:14:23;;;;;;;36.30;24.08;;;;;;;;;;5114344;28;20034;-78
2022/02/20 07:16:49;;;;;;;48.35;26.23;;;;;;;;;;5113743;28;20051;-78
2022/02/20 07:19:16;;;;;;;60.85;39.58;;;;;;;;;;5112617;28;20020;-78
2022/02/20 07:21:43;;;;;;;51.85;35.28;;;;;;;;;;5114401;28;20062;-80
2022/02/20 07:24:09;;;;;;;58.45;38.33;;;;;;;;;;5114404;28;20020;-78
2022/02/20 07:26:35;;;;;;;67.85;43.25;;;;;;;;;;5113586;28;20403;-78
2022/02/20 07:29:01;;;;;;;71.32;50.05;;;;;;;;;;5111744;28;20015;-80
2022/02/20 07:31:28;;;;;;;66.75;45.53;;;;;;;;;;5112687;28;20019;-79
2022/02/20 07:33:55;;;;;;;76.90;46.80;;;;;;;;;;5112646;28;20027;-77
2022/02/20 07:36:21;;;;;;;70.18;41.92;;;;;;;;;;5114017;28;20020;-77
2022/02/20 07:38:47;;;;;;;62.75;40.22;;;;;;;;;;5112230;28;20465;-79
2022/02/20 07:41:13;;;;;;;69.05;44.25;;;;;;;;;;5112283;28;20016;-76
2022/02/20 07:43:41;;;;;;;58.33;35.88;;;;;;;;;;5112171;28;20536;-77
2022/02/20 07:46:07;;;;;;;33.03;21.20;;;;;;;;;;5113752;28;20034;-77
2022/02/20 07:48:34;;;;;;;24.92;17.42;;;;;;;;;;5112283;28;20020;-79
2022/02/20 07:51:00;;;;;;;36.80;21.48;;;;;;;;;;5113095;28;20019;-80
2022/02/20 07:53:27;;;;;;;48.10;28.23;;;;;;;;;;5113491;28;20035;-77
2022/02/20 07:55:53;;;;;;;42.30;25.02;;;;;;;;;;5113332;28;20012;-79
2022/02/20 07:58:20;;;;;;;163.60;94.45;;;;;;;;;;5112127;28;20020;-78
2022/02/20 08:00:46;;;;;;;73.20;46.47;;;;;;;;;;5105838;28;20078;-78
2022/02/20 08:03:12;;;;;;;70.90;45.90;;;;;;;;;;5094236;28;20020;-78
2022/02/20 08:05:38;;;;;;;37.97;25.10;;;;;;;;;;5093314;28;20028;-78
2022/02/20 08:08:04;;;;;;;37.33;26.58;;;;;;;;;;5092914;28;20115;-78
2022/02/20 08:10:30;;;;;;;40.08;27.00;;;;;;;;;;5091445;28;20427;-77
2022/02/20 08:12:56;;;;;;;37.03;23.70;;;;;;;;;;5092457;28;20020;-78
2022/02/20 08:15:23;;;;;;;29.98;16.75;;;;;;;;;;5092164;28;20048;-77
2022/02/20 08:17:49;;;;;;;29.10;16.38;;;;;;;;;;5094853;28;20016;-77
2022/02/20 08:20:16;;;;;;;21.42;14.00;;;;;;;;;;5090646;28;20065;-77
2022/02/20 08:22:42;;;;;;;22.33;14.10;;;;;;;;;;5091321;28;20111;-77
2022/02/20 08:25:08;;;;;;;20.00;13.50;;;;;;;;;;5091385;28;20101;-77
2022/02/20 08:27:35;;;;;;;23.20;13.20;;;;;;;;;;5092633;28;20046;-78
2022/02/20 08:30:01;;;;;;;19.13;12.30;;;;;;;;;;5092321;28;20403;-79
2022/02/20 08:32:27;;;;;;;25.63;14.40;;;;;;;;;;5092055;28;20016;-78
2022/02/20 08:34:53;;;;;;;20.25;13.05;;;;;;;;;;5091301;28;20024;-75
2022/02/20 08:37:19;;;;;;;27.35;13.68;;;;;;;;;;5092462;28;20021;-76
2022/02/20 08:39:45;;;;;;;22.60;14.30;;;;;;;;;;5091903;28;20078;-76
2022/02/20 08:42:11;;;;;;;22.67;14.00;;;;;;;;;;5090713;28;20016;-76
2022/02/20 08:44:38;;;;;;;21.27;12.55;;;;;;;;;;5092162;28;20451;-76
2022/02/20 08:47:04;;;;;;;17.20;10.65;;;;;;;;;;5091514;28;20027;-75
2022/02/20 08:49:31;;;;;;;23.02;12.93;;;;;;;;;;5098139;28;20049;-77
2022/02/20 08:51:58;;;;;;;37.78;17.20;;;;;;;;;;5089558;28;20032;-75
2022/02/20 08:54:24;;;;;;;27.67;16.30;;;;;;;;;;5091337;28;20020;-75
2022/02/20 08:56:50;;;;;;;27.23;14.57;;;;;;;;;;5091239;28;20042;-77
2022/02/20 08:59:16;;;;;;;38.95;16.05;;;;;;;;;;5090159;28;20467;-76
2022/02/20 09:01:42;;;;;;;34.65;17.85;;;;;;;;;;5092755;28;20024;-75
2022/02/20 09:04:09;;;;;;;32.55;18.13;;;;;;;;;;5090077;28;20024;-75
2022/02/20 09:06:35;;;;;;;38.25;21.23;;;;;;;;;;5090732;28;20054;-75
2022/02/20 09:09:01;;;;;;;25.02;17.27;;;;;;;;;;5091198;28;20082;-75
2022/02/20 09:11:30;;;;;;;28.23;17.75;;;;;;;;;;5095610;28;20020;-77
2022/02/20 09:13:57;;;;;;;29.77;17.80;;;;;;;;;;5090865;28;20020;-74
2022/02/20 09:16:23;;;;;;;33.45;19.88;;;;;;;;;;5090742;28;20079;-77
2022/02/20 09:18:49;;;;;;;37.65;22.27;;;;;;;;;;5089072;28;20107;-76
2022/02/20 09:21:15;;;;;;;22.67;15.15;;;;;;;;;;5090760;28;20020;-76
2022/02/20 09:23:41;;;;;;;24.85;15.40;;;;;;;;;;5091934;28;20034;-76
2022/02/20 09:26:07;;;;;;;24.60;15.63;;;;;;;;;;5091558;28;20040;-76
2022/02/20 09:28:34;;;;;;;31.33;21.98;;;;;;;;;;5090769;28;20055;-77
2022/02/20 09:31:00;;;;;;;29.73;18.92;;;;;;;;;;5090485;28;20394;-76
2022/02/20 09:33:26;;;;;;;27.25;14.82;;;;;;;;;;5090852;28;20488;-76
2022/02/20 09:35:52;;;;;;;22.60;14.00;;;;;;;;;;5091702;28;20213;-76
2022/02/20 09:38:18;;;;;;;22.65;13.50;;;;;;;;;;5091396;28;20021;-76
2022/02/20 09:40:45;;;;;;;20.83;12.77;;;;;;;;;;5090307;28;20532;-77
2022/02/20 09:43:14;;;;;;;34.38;17.83;;;;;;;;;;5090288;28;20028;-77
2022/02/20 09:45:45;;;;;;;21.85;13.23;;;;;;;;;;5091952;28;20077;-84
2022/02/20 09:48:11;;;;;;;20.80;13.43;;;;;;;;;;5091989;28;20032;-81
2022/02/20 09:50:38;;;;;;;24.45;14.68;;;;;;;;;;5090887;28;20050;-86
2022/02/20 09:53:04;;;;;;;20.92;13.63;;;;;;;;;;5100866;28;20016;-77
2022/02/20 09:55:30;;;;;;;20.80;12.35;;;;;;;;;;5113092;28;20059;-78
2022/02/20 09:57:56;;;;;;;25.52;15.90;;;;;;;;;;5112260;28;20048;-77
2022/02/20 10:00:23;;;;;;;17.08;10.43;;;;;;;;;;5111023;28;20051;-78
2022/02/20 10:02:49;;;;;;;23.88;14.55;;;;;;;;;;5114652;28;20018;-78
2022/02/20 10:05:19;;;;;;;13.85;8.20;;;;;;;;;;5114092;28;20031;-77
2022/02/20 10:07:47;;;;;;;21.92;11.32;;;;;;;;;;5114368;28;20020;-76
2022/02/20 10:10:13;;;;;;;15.68;9.90;;;;;;;;;;5114575;28;20026;-77
2022/02/20 10:12:39;;;;;;;17.10;10.52;;;;;;;;;;5114049;28;20020;-78
2022/02/20 10:15:24;;;;;;;17.67;11.27;;;;;;;;;;5107564;28;20122;-78
2022/02/20 10:17:50;;;;;;;18.20;10.25;;;;;;;;;;5095127;28;20534;-78
2022/02/20 10:20:22;;;;;;;20.75;14.02;;;;;;;;;;5093699;28;20047;-77
2022/02/20 10:22:48;;;;;;;26.88;14.90;;;;;;;;;;5096590;28;20020;-77
2022/02/20 10:25:15;;;;;;;22.30;12.80;;;;;;;;;;5112753;28;20114;-77
2022/02/20 10:27:48;;;;;;;22.67;12.88;;;;;;;;;;5112114;28;20106;-77
2022/02/20 10:30:20;;;;;;;23.40;14.65;;;;;;;;;;5110563;28;20386;-76
2022/02/20 10:32:52;;;;;;;25.25;16.35;;;;;;;;;;5109065;28;20032;-78
2022/02/20 10:35:18;;;;;;;22.75;15.55;;;;;;;;;;5110970;28;20034;-77
2022/02/20 10:37:44;;;;;;;27.10;17.67;;;;;;;;;;5108723;28;20035;-77
2022/02/20 10:40:27;;;;;;;23.73;16.10;;;;;;;;;;5109560;28;20028;-77
2022/02/20 10:42:54;;;;;;;19.13;12.18;;;;;;;;;;5109919;28;20016;-78
2022/02/20 10:45:25;;;;;;;17.25;9.75;;;;;;;;;;5111405;28;20074;-78
2022/02/20 10:47:51;;;;;;;21.50;13.05;;;;;;;;;;5110310;28;20131;-78
2022/02/20 10:50:25;;;;;;;20.95;14.57;;;;;;;;;;5110683;28;20035;-78
2022/02/20 10:53:06;;;;;;;23.20;17.15;;;;;;;;;;5104682;28;20387;-79
2022/02/20 10:55:40;;;;;;;32.85;23.23;;;;;;;;;;5130212;27;20028;-79
2022/02/20 10:58:10;;;;;;;42.85;23.55;;;;;;;;;;5108906;28;20070;-79
2022/02/20 11:00:36;;;;;;;41.28;26.70;;;;;;;;;;5110144;28;20073;-79
2022/02/20 11:03:07;;;;;;;38.33;21.63;;;;;;;;;;5109992;28;20034;-80
2022/02/20 11:05:34;;;;;;;28.08;16.63;;;;;;;;;;5110398;28;20092;-78
2022/02/20 11:08:00;;;;;;;31.50;17.52;;;;;;;;;;5102927;28;20027;-78
2022/02/20 11:10:26;;;;;;;24.65;14.73;;;;;;;;;;5111736;28;20024;-78
2022/02/20 11:12:52;;;;;;;22.30;15.30;;;;;;;;;;5111624;28;20035;-79
2022/02/20 11:15:19;;;;;;;23.92;11.93;;;;;;;;;;5111543;28;20110;-79
2022/02/20 11:17:46;;;;;;;21.10;13.02;;;;;;;;;;5105982;28;20044;-79
2022/02/20 11:20:13;;;;;;;33.83;22.40;;;;;;;;;;5107968;28;20027;-80
2022/02/20 11:22:41;;;;;;;28.90;16.50;;;;;;;;;;5111435;28;20562;-80
2022/02/20 11:25:08;;;;;;;27.70;19.17;;;;;;;;;;5108265;28;20031;-79
2022/02/20 11:27:37;;;;;;;36.85;27.90;;;;;;;;;;5104706;28;20027;-78
2022/02/20 11:30:03;;;;;;;20.17;12.63;;;;;;;;;;5110059;28;20028;-79
2022/02/20 11:32:30;;;;;;;11.77;7.57;;;;;;;;;;5107454;28;20454;-79
2022/02/20 11:34:56;;;;;;;14.80;7.65;;;;;;;;;;5108756;28;20111;-79
2022/02/20 11:37:22;;;;;;;18.20;9.48;;;;;;;;;;5107126;28;20030;-78
2022/02/20 11:39:59;;;;;;;20.75;13.85;;;;;;;;;;5100722;28;20048;-78
2022/02/20 11:42:25;;;;;;;27.70;14.38;;;;;;;;;;5097870;28;20485;-79
2022/02/20 11:44:52;;;;;;;41.17;20.13;;;;;;;;;;5100218;28;20024;-79
2022/02/20 11:47:38;;;;;;;22.77;16.52;;;;;;;;;;5102739;28;20043;-77
2022/02/20 11:50:16;;;;;;;22.13;11.25;;;;;;;;;;5100724;28;20035;-79
2022/02/20 11:52:47;;;;;;;21.58;11.60;;;;;;;;;;5105232;28;20023;-79
2022/02/20 11:55:13;;;;;;;24.63;16.15;;;;;;;;;;5109625;28;20073;-79
2022/02/20 11:57:40;;;;;;;28.90;19.10;;;;;;;;;;5093076;28;20020;-81
2022/02/20 12:00:07;;;;;;;25.60;13.07;;;;;;;;;;5107558;28;20035;-80
2022/02/20 12:02:34;;;;;;;29.92;17.90;;;;;;;;;;5107364;28;20015;-81
2022/02/20 12:05:00;;;;;;;41.92;25.33;;;;;;;;;;5107146;28;20024;-80
2022/02/20 12:07:31;;;;;;;27.77;17.33;;;;;;;;;;5107148;28;20938;-79
2022/02/20 12:10:15;;;;;;;24.95;13.55;;;;;;;;;;5106552;28;20047;-77
2022/02/20 12:12:45;;;;;;;37.17;19.42;;;;;;;;;;5102372;28;20027;-78
2022/02/20 12:15:32;;;;;;;30.83;20.85;;;;;;;;;;5102591;28;20020;-79
2022/02/20 12:17:59;;;;;;;27.85;16.58;;;;;;;;;;5099954;28;20558;-79
2022/02/20 12:20:47;;;;;;;31.67;18.20;;;;;;;;;;5107010;28;20027;-79
2022/02/20 12:23:25;;;;;;;33.72;22.67;;;;;;;;;;5103953;28;20027;-78
2022/02/20 12:25:52;;;;;;;77.72;52.30;;;;;;;;;;5106113;28;20475;-78
2022/02/20 12:28:38;;;;;;;36.97;24.08;;;;;;;;;;5107556;28;20037;-80
2022/02/20 12:31:24;;;;;;;32.70;19.70;;;;;;;;;;5106603;28;20173;-78
2022/02/20 12:33:50;;;;;;;32.17;18.45;;;;;;;;;;5098185;28;20031;-80
2022/02/20 12:36:26;;;;;;;38.67;25.67;;;;;;;;;;5110668;28;20019;-79
2022/02/20 12:38:53;;;;;;;37.42;22.88;;;;;;;;;;5109065;28;20015;-80
2022/02/20 12:41:19;;;;;;;74.22;46.72;;;;;;;;;;5108032;28;20039;-81
2022/02/20 12:43:49;;;;;;;39.05;22.83;;;;;;;;;;5108559;28;20019;-81
2022/02/20 12:46:15;;;;;;;35.65;19.63;;;;;;;;;;5106856;28;20027;-80
2022/02/20 12:48:42;;;;;;;40.78;30.08;;;;;;;;;;5110774;28;20047;-80
2022/02/20 12:51:09;;;;;;;50.88;32.67;;;;;;;;;;5111164;28;20016;-80
2022/02/20 12:53:36;;;;;;;47.33;31.95;;;;;;;;;;5108510;28;20015;-79
2022/02/20 12:56:06;;;;;;;44.25;32.10;;;;;;;;;;5109863;28;20015;-79
2022/02/20 12:58:46;;;;;;;50.13;33.20;;;;;;;;;;5111324;28;20029;-78
2022/02/20 13:01:12;;;;;;;50.33;33.38;;;;;;;;;;5111948;28;20027;-82
2022/02/20 13:03:38;;;;;;;49.40;35.63;;;;;;;;;;5107603;28;20028;-77
2022/02/20 13:06:04;;;;;;;49.45;34.92;;;;;;;;;;5108530;28;20027;-78
2022/02/20 13:08:32;;;;;;;44.55;33.10;;;;;;;;;;5107603;28;20012;-77
2022/02/20 13:11:00;;;;;;;44.55;34.20;;;;;;;;;;5092827;28;20031;-78
2022/02/20 13:13:27;;;;;;;43.10;32.03;;;;;;;;;;5091379;28;20017;-78
2022/02/20 13:16:02;;;;;;;39.38;28.95;;;;;;;;;;5094219;28;20511;-81
2022/02/20 13:18:32;;;;;;;43.63;30.75;;;;;;;;;;5096680;28;20020;-79
2022/02/20 13:20:58;;;;;;;42.50;30.17;;;;;;;;;;5096938;28;20031;-78
2022/02/20 13:23:28;;;;;;;40.97;30.13;;;;;;;;;;5103972;28;20034;-78
2022/02/20 13:25:56;;;;;;;49.58;37.30;;;;;;;;;;5103539;28;20040;-79
2022/02/20 13:28:26;;;;;;;54.05;41.58;;;;;;;;;;5108700;28;20028;-79
2022/02/20 13:30:57;;;;;;;51.72;38.92;;;;;;;;;;5116487;28;20474;-77
2022/02/20 13:33:23;;;;;;;50.97;39.22;;;;;;;;;;5115059;28;20023;-76
2022/02/20 13:35:51;;;;;;;60.20;53.95;;;;;;;;;;5116380;28;20328;-79
2022/02/20 13:38:24;;;;;;;54.28;44.10;;;;;;;;;;5115055;28;20019;-81
2022/02/20 13:40:51;;;;;;;58.83;47.47;;;;;;;;;;5114486;28;20023;-83
2022/02/20 13:43:18;;;;;;;64.38;44.58;;;;;;;;;;5111481;28;20019;-79
2022/02/20 13:45:50;;;;;;;109.90;72.20;;;;;;;;;;5094398;28;20043;-78
2022/02/20 13:48:48;;;;;;;62.97;44.20;;;;;;;;;;5098501;28;20058;-81
2022/02/20 13:51:25;;;;;;;40.97;30.00;;;;;;;;;;5070807;28;20043;-81
2022/02/20 13:53:57;;;;;;;66.85;45.80;;;;;;;;;;5096038;28;20020;-82
2022/02/20 13:56:42;;;;;;;38.08;26.38;;;;;;;;;;5096302;28;20024;-81
2022/02/20 13:59:09;;;;;;;32.70;19.15;;;;;;;;;;5106868;28;20030;-82
2022/02/20 14:01:41;;;;;;;16.02;9.27;;;;;;;;;;5110563;28;20062;-81
2022/02/20 14:04:21;;;;;;;18.58;10.88;;;;;;;;;;5116459;28;20110;-85
2022/02/20 14:06:47;;;;;;;25.25;10.88;;;;;;;;;;5097183;28;20075;-82
2022/02/20 14:09:13;;;;;;;22.77;12.55;;;;;;;;;;5096889;28;20093;-82